sensor_id;sensor_type;location;lat;lon;timestamp;P1;durP1;ratioP1;P2;durP2;ratioP2
78877;SDS011;68257;43.514;1.498;2024-01-15T00:01:40;8.90;;;4.53;;
78877;SDS011;68257;43.514;1.498;2024-01-15T00:04:07;9.13;;;4.50;;
78877;SDS011;68257;43.514;1.498;2024-01-15T00:06:32;7.17;;;4.07;;
78877;SDS011;68257;43.514;1.498;2024-01-15T00:08:58;8.60;;;4.37;;
78877;SDS011;68257;43.514;1.498;2024-01-15T00:11:24;10.05;;;4.43;;
78877;SDS011;68257;43.514;1.498;2024-01-15T00:13:49;15.43;;;6.50;;
78877;SDS011;68257;43.514;1.498;2024-01-15T00:16:14;16.07;;;7.30;;
78877;SDS011;68257;43.514;1.498;2024-01-15T00:18:40;18.53;;;7.23;;
78877;SDS011;68257;43.514;1.498;2024-01-15T00:21:05;10.20;;;5.00;;
78877;SDS011;68257;43.514;1.498;2024-01-15T00:23:30;10.97;;;4.73;;
78877;SDS011;68257;43.514;1.498;2024-01-15T00:25:56;7.25;;;4.05;;
78877;SDS011;68257;43.514;1.498;2024-01-15T00:28:21;7.72;;;3.80;;
78877;SDS011;68257;43.514;1.498;2024-01-15T00:30:47;7.53;;;4.00;;
78877;SDS011;68257;43.514;1.498;2024-01-15T00:33:12;7.37;;;3.60;;
78877;SDS011;68257;43.514;1.498;2024-01-15T00:35:39;10.60;;;3.95;;
78877;SDS011;68257;43.514;1.498;2024-01-15T00:38:05;9.13;;;4.10;;
78877;SDS011;68257;43.514;1.498;2024-01-15T00:40:30;7.67;;;3.80;;
78877;SDS011;68257;43.514;1.498;2024-01-15T00:42:55;8.17;;;3.83;;
78877;SDS011;68257;43.514;1.498;2024-01-15T00:45:21;11.17;;;3.77;;
78877;SDS011;68257;43.514;1.498;2024-01-15T00:47:46;9.00;;;4.28;;
78877;SDS011;68257;43.514;1.498;2024-01-15T00:50:12;10.10;;;4.80;;
78877;SDS011;68257;43.514;1.498;2024-01-15T00:52:37;8.07;;;4.23;;
78877;SDS011;68257;43.514;1.498;2024-01-15T00:55:02;11.13;;;4.47;;
78877;SDS011;68257;43.514;1.498;2024-01-15T00:57:28;11.18;;;4.45;;
78877;SDS011;68257;43.514;1.498;2024-01-15T00:59:53;10.73;;;5.00;;
78877;SDS011;68257;43.514;1.498;2024-01-15T01:02:19;10.73;;;4.50;;
78877;SDS011;68257;43.514;1.498;2024-01-15T01:04:44;9.80;;;4.47;;
78877;SDS011;68257;43.514;1.498;2024-01-15T01:07:10;8.57;;;3.97;;
78877;SDS011;68257;43.514;1.498;2024-01-15T01:09:35;7.50;;;4.17;;
78877;SDS011;68257;43.514;1.498;2024-01-15T01:12:00;8.73;;;4.40;;
78877;SDS011;68257;43.514;1.498;2024-01-15T01:14:26;9.40;;;4.30;;
78877;SDS011;68257;43.514;1.498;2024-01-15T01:16:51;6.70;;;3.58;;
78877;SDS011;68257;43.514;1.498;2024-01-15T01:19:17;6.80;;;3.90;;
78877;SDS011;68257;43.514;1.498;2024-01-15T01:21:42;8.53;;;3.60;;
78877;SDS011;68257;43.514;1.498;2024-01-15T01:24:07;8.37;;;4.33;;
78877;SDS011;68257;43.514;1.498;2024-01-15T01:26:33;8.93;;;4.10;;
78877;SDS011;68257;43.514;1.498;2024-01-15T01:28:58;8.07;;;3.80;;
78877;SDS011;68257;43.514;1.498;2024-01-15T01:31:24;12.05;;;4.40;;
78877;SDS011;68257;43.514;1.498;2024-01-15T01:33:49;8.17;;;4.57;;
78877;SDS011;68257;43.514;1.498;2024-01-15T01:36:15;11.20;;;5.27;;
78877;SDS011;68257;43.514;1.498;2024-01-15T01:38:40;7.50;;;4.47;;
78877;SDS011;68257;43.514;1.498;2024-01-15T01:41:06;11.05;;;5.05;;
78877;SDS011;68257;43.514;1.498;2024-01-15T01:43:31;10.07;;;5.00;;
78877;SDS011;68257;43.514;1.498;2024-01-15T01:45:57;10.90;;;4.90;;
78877;SDS011;68257;43.514;1.498;2024-01-15T01:48:25;10.95;;;4.97;;
78877;SDS011;68257;43.514;1.498;2024-01-15T01:50:52;10.45;;;4.90;;
78877;SDS011;68257;43.514;1.498;2024-01-15T01:53:19;8.50;;;4.90;;
78877;SDS011;68257;43.514;1.498;2024-01-15T01:55:44;10.98;;;5.40;;
78877;SDS011;68257;43.514;1.498;2024-01-15T01:58:10;9.67;;;5.20;;
78877;SDS011;68257;43.514;1.498;2024-01-15T02:00:36;7.72;;;4.95;;
78877;SDS011;68257;43.514;1.498;2024-01-15T02:03:01;8.25;;;5.50;;
78877;SDS011;68257;43.514;1.498;2024-01-15T02:05:28;10.03;;;5.30;;
78877;SDS011;68257;43.514;1.498;2024-01-15T02:07:54;9.50;;;5.55;;
78877;SDS011;68257;43.514;1.498;2024-01-15T02:10:19;9.88;;;5.57;;
78877;SDS011;68257;43.514;1.498;2024-01-15T02:12:45;10.95;;;5.55;;
78877;SDS011;68257;43.514;1.498;2024-01-15T02:15:13;10.13;;;5.20;;
78877;SDS011;68257;43.514;1.498;2024-01-15T02:20:30;9.13;;;5.13;;
78877;SDS011;68257;43.514;1.498;2024-01-15T02:25:37;11.85;;;6.10;;
78877;SDS011;68257;43.514;1.498;2024-01-15T02:28:03;14.77;;;6.82;;
78877;SDS011;68257;43.514;1.498;2024-01-15T02:30:29;11.98;;;6.43;;
78877;SDS011;68257;43.514;1.498;2024-01-15T02:32:55;12.32;;;6.53;;
78877;SDS011;68257;43.514;1.498;2024-01-15T02:35:20;11.63;;;6.47;;
78877;SDS011;68257;43.514;1.498;2024-01-15T02:37:46;10.97;;;6.37;;
78877;SDS011;68257;43.514;1.498;2024-01-15T02:40:11;10.40;;;6.37;;
78877;SDS011;68257;43.514;1.498;2024-01-15T02:42:36;9.20;;;5.80;;
78877;SDS011;68257;43.514;1.498;2024-01-15T02:45:03;11.67;;;6.10;;
78877;SDS011;68257;43.514;1.498;2024-01-15T02:47:28;11.15;;;6.20;;
78877;SDS011;68257;43.514;1.498;2024-01-15T02:49:54;10.00;;;6.10;;
78877;SDS011;68257;43.514;1.498;2024-01-15T02:52:19;10.40;;;6.30;;
78877;SDS011;68257;43.514;1.498;2024-01-15T02:54:44;11.97;;;6.10;;
78877;SDS011;68257;43.514;1.498;2024-01-15T02:57:10;9.17;;;5.50;;
78877;SDS011;68257;43.514;1.498;2024-01-15T02:59:35;9.35;;;5.63;;
78877;SDS011;68257;43.514;1.498;2024-01-15T03:02:00;9.13;;;5.72;;
78877;SDS011;68257;43.514;1.498;2024-01-15T03:04:26;9.57;;;5.60;;
78877;SDS011;68257;43.514;1.498;2024-01-15T03:06:51;9.33;;;5.57;;
78877;SDS011;68257;43.514;1.498;2024-01-15T03:09:17;9.93;;;6.03;;
78877;SDS011;68257;43.514;1.498;2024-01-15T03:11:42;10.83;;;5.47;;
78877;SDS011;68257;43.514;1.498;2024-01-15T03:14:07;8.30;;;4.90;;
78877;SDS011;68257;43.514;1.498;2024-01-15T03:16:33;10.55;;;5.68;;
78877;SDS011;68257;43.514;1.498;2024-01-15T03:18:58;9.97;;;6.83;;
78877;SDS011;68257;43.514;1.498;2024-01-15T03:21:24;13.10;;;7.27;;
78877;SDS011;68257;43.514;1.498;2024-01-15T03:23:49;13.40;;;7.63;;
78877;SDS011;68257;43.514;1.498;2024-01-15T03:26:14;11.77;;;7.23;;
78877;SDS011;68257;43.514;1.498;2024-01-15T03:28:40;9.75;;;6.38;;
78877;SDS011;68257;43.514;1.498;2024-01-15T03:31:05;11.53;;;7.10;;
78877;SDS011;68257;43.514;1.498;2024-01-15T03:33:32;11.57;;;7.37;;
78877;SDS011;68257;43.514;1.498;2024-01-15T03:35:58;11.68;;;7.43;;
78877;SDS011;68257;43.514;1.498;2024-01-15T03:38:23;9.53;;;6.97;;
78877;SDS011;68257;43.514;1.498;2024-01-15T03:40:49;10.33;;;6.90;;
78877;SDS011;68257;43.514;1.498;2024-01-15T03:43:14;10.52;;;7.43;;
78877;SDS011;68257;43.514;1.498;2024-01-15T03:45:40;9.43;;;6.38;;
78877;SDS011;68257;43.514;1.498;2024-01-15T03:48:05;8.87;;;5.70;;
78877;SDS011;68257;43.514;1.498;2024-01-15T03:50:31;9.57;;;5.77;;
78877;SDS011;68257;43.514;1.498;2024-01-15T03:52:56;7.90;;;5.27;;
78877;SDS011;68257;43.514;1.498;2024-01-15T03:55:21;10.95;;;6.80;;
78877;SDS011;68257;43.514;1.498;2024-01-15T03:57:47;12.95;;;7.05;;
78877;SDS011;68257;43.514;1.498;2024-01-15T04:00:13;9.50;;;6.17;;
78877;SDS011;68257;43.514;1.498;2024-01-15T04:02:39;9.57;;;6.03;;
78877;SDS011;68257;43.514;1.498;2024-01-15T04:05:05;8.13;;;6.00;;
78877;SDS011;68257;43.514;1.498;2024-01-15T04:07:30;8.83;;;5.63;;
78877;SDS011;68257;43.514;1.498;2024-01-15T04:09:56;11.33;;;5.97;;
78877;SDS011;68257;43.514;1.498;2024-01-15T04:12:21;15.17;;;6.80;;
78877;SDS011;68257;43.514;1.498;2024-01-15T04:14:46;9.73;;;6.43;;
78877;SDS011;68257;43.514;1.498;2024-01-15T04:17:12;12.00;;;7.45;;
78877;SDS011;68257;43.514;1.498;2024-01-15T04:19:37;12.03;;;7.77;;
78877;SDS011;68257;43.514;1.498;2024-01-15T04:22:02;13.23;;;7.77;;
78877;SDS011;68257;43.514;1.498;2024-01-15T04:24:28;9.70;;;6.47;;
78877;SDS011;68257;43.514;1.498;2024-01-15T04:26:53;9.80;;;6.27;;
78877;SDS011;68257;43.514;1.498;2024-01-15T04:29:19;13.88;;;7.20;;
78877;SDS011;68257;43.514;1.498;2024-01-15T04:31:44;10.30;;;6.57;;
78877;SDS011;68257;43.514;1.498;2024-01-15T04:34:10;10.07;;;6.50;;
78877;SDS011;68257;43.514;1.498;2024-01-15T04:36:38;10.10;;;6.03;;
78877;SDS011;68257;43.514;1.498;2024-01-15T04:39:05;10.82;;;6.10;;
78877;SDS011;68257;43.514;1.498;2024-01-15T04:41:30;11.43;;;6.30;;
78877;SDS011;68257;43.514;1.498;2024-01-15T04:43:56;10.67;;;6.83;;
78877;SDS011;68257;43.514;1.498;2024-01-15T04:46:22;11.07;;;6.50;;
78877;SDS011;68257;43.514;1.498;2024-01-15T04:48:47;10.30;;;6.90;;
78877;SDS011;68257;43.514;1.498;2024-01-15T04:51:12;8.87;;;6.17;;
78877;SDS011;68257;43.514;1.498;2024-01-15T04:53:38;12.53;;;6.83;;
78877;SDS011;68257;43.514;1.498;2024-01-15T04:56:03;10.90;;;6.75;;
78877;SDS011;68257;43.514;1.498;2024-01-15T04:58:29;10.75;;;6.25;;
78877;SDS011;68257;43.514;1.498;2024-01-15T05:00:54;10.23;;;6.50;;
78877;SDS011;68257;43.514;1.498;2024-01-15T05:03:20;11.20;;;5.90;;
78877;SDS011;68257;43.514;1.498;2024-01-15T05:05:45;11.97;;;6.93;;
78877;SDS011;68257;43.514;1.498;2024-01-15T05:08:10;10.85;;;6.22;;
78877;SDS011;68257;43.514;1.498;2024-01-15T05:10:36;8.30;;;5.57;;
78877;SDS011;68257;43.514;1.498;2024-01-15T05:13:02;8.50;;;5.43;;
78877;SDS011;68257;43.514;1.498;2024-01-15T05:15:28;9.00;;;5.70;;
78877;SDS011;68257;43.514;1.498;2024-01-15T05:17:53;9.97;;;6.03;;
78877;SDS011;68257;43.514;1.498;2024-01-15T05:20:18;8.47;;;5.73;;
78877;SDS011;68257;43.514;1.498;2024-01-15T05:22:44;8.87;;;6.17;;
78877;SDS011;68257;43.514;1.498;2024-01-15T05:25:09;8.87;;;5.57;;
78877;SDS011;68257;43.514;1.498;2024-01-15T05:27:34;9.27;;;6.37;;
78877;SDS011;68257;43.514;1.498;2024-01-15T05:30:00;7.95;;;5.38;;
78877;SDS011;68257;43.514;1.498;2024-01-15T05:32:25;8.98;;;5.63;;
78877;SDS011;68257;43.514;1.498;2024-01-15T05:34:50;9.20;;;5.50;;
78877;SDS011;68257;43.514;1.498;2024-01-15T05:37:15;7.77;;;5.53;;
78877;SDS011;68257;43.514;1.498;2024-01-15T05:39:41;8.10;;;5.53;;
78877;SDS011;68257;43.514;1.498;2024-01-15T05:42:06;15.80;;;14.30;;
78877;SDS011;68257;43.514;1.498;2024-01-15T05:44:32;9.57;;;6.77;;
78877;SDS011;68257;43.514;1.498;2024-01-15T05:46:57;13.63;;;7.80;;
78877;SDS011;68257;43.514;1.498;2024-01-15T05:49:22;10.03;;;6.47;;
78877;SDS011;68257;43.514;1.498;2024-01-15T05:51:48;10.82;;;7.05;;
78877;SDS011;68257;43.514;1.498;2024-01-15T05:54:13;8.50;;;5.70;;
78877;SDS011;68257;43.514;1.498;2024-01-15T05:56:38;9.13;;;6.43;;
78877;SDS011;68257;43.514;1.498;2024-01-15T05:59:04;8.77;;;5.93;;
78877;SDS011;68257;43.514;1.498;2024-01-15T06:01:29;9.33;;;5.57;;
78877;SDS011;68257;43.514;1.498;2024-01-15T06:03:54;9.43;;;5.30;;
78877;SDS011;68257;43.514;1.498;2024-01-15T06:06:20;8.90;;;5.43;;
78877;SDS011;68257;43.514;1.498;2024-01-15T06:08:46;9.93;;;5.70;;
78877;SDS011;68257;43.514;1.498;2024-01-15T06:11:11;9.10;;;5.73;;
78877;SDS011;68257;43.514;1.498;2024-01-15T06:13:36;9.93;;;5.63;;
78877;SDS011;68257;43.514;1.498;2024-01-15T06:16:02;10.37;;;6.63;;
78877;SDS011;68257;43.514;1.498;2024-01-15T06:18:27;9.95;;;6.03;;
78877;SDS011;68257;43.514;1.498;2024-01-15T06:20:53;12.03;;;7.93;;
78877;SDS011;68257;43.514;1.498;2024-01-15T06:23:18;12.27;;;7.90;;
78877;SDS011;68257;43.514;1.498;2024-01-15T06:25:43;13.50;;;7.53;;
78877;SDS011;68257;43.514;1.498;2024-01-15T06:28:09;12.27;;;8.50;;
78877;SDS011;68257;43.514;1.498;2024-01-15T06:30:34;17.70;;;9.83;;
78877;SDS011;68257;43.514;1.498;2024-01-15T06:33:00;18.27;;;11.02;;
78877;SDS011;68257;43.514;1.498;2024-01-15T06:35:25;17.10;;;10.80;;
78877;SDS011;68257;43.514;1.498;2024-01-15T06:37:51;17.20;;;9.80;;
78877;SDS011;68257;43.514;1.498;2024-01-15T06:40:16;14.60;;;9.13;;
78877;SDS011;68257;43.514;1.498;2024-01-15T06:42:41;17.03;;;9.63;;
78877;SDS011;68257;43.514;1.498;2024-01-15T06:45:07;17.17;;;9.75;;
78877;SDS011;68257;43.514;1.498;2024-01-15T06:47:33;17.67;;;11.20;;
78877;SDS011;68257;43.514;1.498;2024-01-15T06:49:58;15.23;;;10.35;;
78877;SDS011;68257;43.514;1.498;2024-01-15T06:52:24;17.03;;;9.87;;
78877;SDS011;68257;43.514;1.498;2024-01-15T06:54:49;22.00;;;10.67;;
78877;SDS011;68257;43.514;1.498;2024-01-15T06:57:15;20.50;;;10.50;;
78877;SDS011;68257;43.514;1.498;2024-01-15T06:59:40;21.60;;;10.70;;
78877;SDS011;68257;43.514;1.498;2024-01-15T07:02:06;27.08;;;11.23;;
78877;SDS011;68257;43.514;1.498;2024-01-15T07:04:31;23.27;;;11.07;;
78877;SDS011;68257;43.514;1.498;2024-01-15T07:06:56;31.37;;;12.40;;
78877;SDS011;68257;43.514;1.498;2024-01-15T07:09:22;49.53;;;19.53;;
78877;SDS011;68257;43.514;1.498;2024-01-15T07:11:47;32.33;;;13.57;;
78877;SDS011;68257;43.514;1.498;2024-01-15T07:14:13;30.35;;;11.60;;
78877;SDS011;68257;43.514;1.498;2024-01-15T07:16:39;26.97;;;13.90;;
78877;SDS011;68257;43.514;1.498;2024-01-15T07:19:04;26.48;;;11.35;;
78877;SDS011;68257;43.514;1.498;2024-01-15T07:21:30;24.10;;;11.37;;
78877;SDS011;68257;43.514;1.498;2024-01-15T07:23:55;21.03;;;10.60;;
78877;SDS011;68257;43.514;1.498;2024-01-15T07:26:21;43.77;;;12.87;;
78877;SDS011;68257;43.514;1.498;2024-01-15T07:28:46;28.42;;;15.63;;
78877;SDS011;68257;43.514;1.498;2024-01-15T07:31:12;18.73;;;10.88;;
78877;SDS011;68257;43.514;1.498;2024-01-15T07:33:37;25.70;;;10.53;;
78877;SDS011;68257;43.514;1.498;2024-01-15T07:36:02;25.03;;;11.03;;
78877;SDS011;68257;43.514;1.498;2024-01-15T07:38:28;25.17;;;11.23;;
78877;SDS011;68257;43.514;1.498;2024-01-15T07:40:53;22.45;;;10.43;;
78877;SDS011;68257;43.514;1.498;2024-01-15T07:43:19;23.63;;;11.27;;
78877;SDS011;68257;43.514;1.498;2024-01-15T07:45:44;24.50;;;11.70;;
78877;SDS011;68257;43.514;1.498;2024-01-15T07:48:10;24.17;;;11.80;;
78877;SDS011;68257;43.514;1.498;2024-01-15T07:50:35;21.92;;;11.07;;
78877;SDS011;68257;43.514;1.498;2024-01-15T07:53:01;24.07;;;12.07;;
78877;SDS011;68257;43.514;1.498;2024-01-15T07:55:26;21.50;;;10.90;;
78877;SDS011;68257;43.514;1.498;2024-01-15T07:57:52;22.23;;;11.70;;
78877;SDS011;68257;43.514;1.498;2024-01-15T08:00:18;23.23;;;11.13;;
78877;SDS011;68257;43.514;1.498;2024-01-15T08:02:44;27.50;;;11.27;;
78877;SDS011;68257;43.514;1.498;2024-01-15T08:05:09;25.70;;;12.00;;
78877;SDS011;68257;43.514;1.498;2024-01-15T08:07:35;29.43;;;14.17;;
78877;SDS011;68257;43.514;1.498;2024-01-15T08:10:01;25.27;;;12.85;;
78877;SDS011;68257;43.514;1.498;2024-01-15T08:12:26;25.00;;;12.83;;
78877;SDS011;68257;43.514;1.498;2024-01-15T08:14:52;25.00;;;13.43;;
78877;SDS011;68257;43.514;1.498;2024-01-15T08:17:17;22.00;;;11.93;;
78877;SDS011;68257;43.514;1.498;2024-01-15T08:19:42;22.70;;;12.43;;
78877;SDS011;68257;43.514;1.498;2024-01-15T08:22:08;24.52;;;12.10;;
78877;SDS011;68257;43.514;1.498;2024-01-15T08:24:34;24.23;;;12.63;;
78877;SDS011;68257;43.514;1.498;2024-01-15T08:27:00;23.73;;;11.57;;
78877;SDS011;68257;43.514;1.498;2024-01-15T08:29:25;22.30;;;12.07;;
78877;SDS011;68257;43.514;1.498;2024-01-15T08:31:50;26.23;;;13.40;;
78877;SDS011;68257;43.514;1.498;2024-01-15T08:34:16;27.93;;;13.73;;
78877;SDS011;68257;43.514;1.498;2024-01-15T08:36:41;27.33;;;13.93;;
78877;SDS011;68257;43.514;1.498;2024-01-15T08:39:07;30.70;;;14.50;;
78877;SDS011;68257;43.514;1.498;2024-01-15T08:41:34;29.02;;;14.75;;
78877;SDS011;68257;43.514;1.498;2024-01-15T08:43:59;24.92;;;12.02;;
78877;SDS011;68257;43.514;1.498;2024-01-15T08:46:25;38.00;;;13.63;;
78877;SDS011;68257;43.514;1.498;2024-01-15T08:48:50;24.00;;;12.70;;
78877;SDS011;68257;43.514;1.498;2024-01-15T08:51:16;26.07;;;13.90;;
78877;SDS011;68257;43.514;1.498;2024-01-15T08:53:41;22.27;;;12.77;;
78877;SDS011;68257;43.514;1.498;2024-01-15T08:56:06;24.15;;;13.48;;
78877;SDS011;68257;43.514;1.498;2024-01-15T08:58:33;23.63;;;13.17;;
78877;SDS011;68257;43.514;1.498;2024-01-15T09:00:58;29.90;;;15.57;;
78877;SDS011;68257;43.514;1.498;2024-01-15T09:03:24;30.97;;;15.80;;
78877;SDS011;68257;43.514;1.498;2024-01-15T09:05:50;29.98;;;15.80;;
78877;SDS011;68257;43.514;1.498;2024-01-15T09:08:16;27.17;;;15.10;;
78877;SDS011;68257;43.514;1.498;2024-01-15T09:10:41;27.33;;;14.73;;
78877;SDS011;68257;43.514;1.498;2024-01-15T09:13:06;28.13;;;14.67;;
78877;SDS011;68257;43.514;1.498;2024-01-15T09:15:33;26.08;;;14.60;;
78877;SDS011;68257;43.514;1.498;2024-01-15T09:17:58;28.83;;;14.07;;
78877;SDS011;68257;43.514;1.498;2024-01-15T09:20:24;29.43;;;13.67;;
78877;SDS011;68257;43.514;1.498;2024-01-15T09:22:51;28.33;;;13.43;;
78877;SDS011;68257;43.514;1.498;2024-01-15T09:25:16;28.27;;;13.80;;
78877;SDS011;68257;43.514;1.498;2024-01-15T09:27:41;30.43;;;13.70;;
78877;SDS011;68257;43.514;1.498;2024-01-15T09:30:07;37.37;;;18.33;;
78877;SDS011;68257;43.514;1.498;2024-01-15T09:32:33;84.13;;;41.85;;
78877;SDS011;68257;43.514;1.498;2024-01-15T09:34:58;45.43;;;24.83;;
78877;SDS011;68257;43.514;1.498;2024-01-15T09:37:24;33.28;;;16.98;;
78877;SDS011;68257;43.514;1.498;2024-01-15T09:39:49;34.50;;;16.20;;
78877;SDS011;68257;43.514;1.498;2024-01-15T09:42:15;28.77;;;14.03;;
78877;SDS011;68257;43.514;1.498;2024-01-15T09:44:41;34.00;;;15.38;;
78877;SDS011;68257;43.514;1.498;2024-01-15T09:47:06;34.93;;;15.17;;
78877;SDS011;68257;43.514;1.498;2024-01-15T09:49:32;33.73;;;14.63;;
78877;SDS011;68257;43.514;1.498;2024-01-15T09:51:58;39.20;;;22.92;;
78877;SDS011;68257;43.514;1.498;2024-01-15T09:54:23;33.57;;;16.67;;
78877;SDS011;68257;43.514;1.498;2024-01-15T09:56:49;29.88;;;14.18;;
78877;SDS011;68257;43.514;1.498;2024-01-15T09:59:20;30.23;;;14.60;;
78877;SDS011;68257;43.514;1.498;2024-01-15T10:01:47;29.70;;;14.10;;
78877;SDS011;68257;43.514;1.498;2024-01-15T10:04:16;28.77;;;13.03;;
78877;SDS011;68257;43.514;1.498;2024-01-15T10:06:43;25.42;;;12.50;;
78877;SDS011;68257;43.514;1.498;2024-01-15T10:09:10;23.40;;;11.93;;
78877;SDS011;68257;43.514;1.498;2024-01-15T10:11:39;24.30;;;12.50;;
78877;SDS011;68257;43.514;1.498;2024-01-15T10:14:06;25.08;;;12.57;;
78877;SDS011;68257;43.514;1.498;2024-01-15T10:16:31;25.70;;;13.20;;
78877;SDS011;68257;43.514;1.498;2024-01-15T10:18:57;22.90;;;11.77;;
78877;SDS011;68257;43.514;1.498;2024-01-15T10:21:22;24.38;;;11.88;;
78877;SDS011;68257;43.514;1.498;2024-01-15T10:23:48;25.17;;;13.07;;
78877;SDS011;68257;43.514;1.498;2024-01-15T10:26:14;25.88;;;12.63;;
78877;SDS011;68257;43.514;1.498;2024-01-15T10:28:40;24.40;;;12.40;;
78877;SDS011;68257;43.514;1.498;2024-01-15T10:31:06;25.00;;;12.48;;
78877;SDS011;68257;43.514;1.498;2024-01-15T10:33:31;24.13;;;12.87;;
78877;SDS011;68257;43.514;1.498;2024-01-15T10:35:57;26.70;;;13.93;;
78877;SDS011;68257;43.514;1.498;2024-01-15T10:38:24;26.48;;;13.13;;
78877;SDS011;68257;43.514;1.498;2024-01-15T10:40:54;26.50;;;13.60;;
78877;SDS011;68257;43.514;1.498;2024-01-15T10:43:20;25.38;;;13.98;;
78877;SDS011;68257;43.514;1.498;2024-01-15T10:45:46;25.67;;;13.63;;
78877;SDS011;68257;43.514;1.498;2024-01-15T10:48:13;24.52;;;12.57;;
78877;SDS011;68257;43.514;1.498;2024-01-15T10:50:38;24.33;;;12.10;;
78877;SDS011;68257;43.514;1.498;2024-01-15T10:53:04;24.00;;;12.23;;
78877;SDS011;68257;43.514;1.498;2024-01-15T10:55:30;21.30;;;11.55;;
78877;SDS011;68257;43.514;1.498;2024-01-15T10:57:57;24.80;;;13.02;;
78877;SDS011;68257;43.514;1.498;2024-01-15T11:00:22;21.42;;;12.60;;
78877;SDS011;68257;43.514;1.498;2024-01-15T11:02:47;25.83;;;13.73;;
78877;SDS011;68257;43.514;1.498;2024-01-15T11:05:13;40.80;;;25.87;;
78877;SDS011;68257;43.514;1.498;2024-01-15T11:07:39;32.13;;;17.83;;
78877;SDS011;68257;43.514;1.498;2024-01-15T11:10:06;27.90;;;14.60;;
78877;SDS011;68257;43.514;1.498;2024-01-15T11:12:35;27.95;;;15.15;;
78877;SDS011;68257;43.514;1.498;2024-01-15T11:15:01;26.67;;;15.05;;
78877;SDS011;68257;43.514;1.498;2024-01-15T11:17:30;27.48;;;14.27;;
78877;SDS011;68257;43.514;1.498;2024-01-15T11:20:25;26.23;;;13.48;;
78877;SDS011;68257;43.514;1.498;2024-01-15T11:22:50;26.90;;;13.93;;
78877;SDS011;68257;43.514;1.498;2024-01-15T11:25:17;29.00;;;13.93;;
78877;SDS011;68257;43.514;1.498;2024-01-15T11:27:44;27.30;;;14.68;;
78877;SDS011;68257;43.514;1.498;2024-01-15T11:30:12;28.30;;;14.68;;
78877;SDS011;68257;43.514;1.498;2024-01-15T11:32:38;23.95;;;13.77;;
78877;SDS011;68257;43.514;1.498;2024-01-15T11:35:07;24.37;;;14.23;;
78877;SDS011;68257;43.514;1.498;2024-01-15T11:40:22;29.73;;;17.27;;
78877;SDS011;68257;43.514;1.498;2024-01-15T11:43:08;27.70;;;16.92;;
78877;SDS011;68257;43.514;1.498;2024-01-15T11:45:34;28.45;;;15.25;;
78877;SDS011;68257;43.514;1.498;2024-01-15T11:50:39;25.00;;;14.10;;
78877;SDS011;68257;43.514;1.498;2024-01-15T11:53:08;26.35;;;15.50;;
78877;SDS011;68257;43.514;1.498;2024-01-15T11:55:43;27.50;;;15.07;;
78877;SDS011;68257;43.514;1.498;2024-01-15T11:58:10;24.60;;;15.07;;
78877;SDS011;68257;43.514;1.498;2024-01-15T12:00:39;25.00;;;14.50;;
78877;SDS011;68257;43.514;1.498;2024-01-15T12:03:08;24.52;;;14.57;;
78877;SDS011;68257;43.514;1.498;2024-01-15T12:05:36;23.27;;;15.13;;
78877;SDS011;68257;43.514;1.498;2024-01-15T12:08:02;24.10;;;14.20;;
78877;SDS011;68257;43.514;1.498;2024-01-15T12:10:27;23.23;;;14.05;;
78877;SDS011;68257;43.514;1.498;2024-01-15T12:13:10;24.63;;;14.47;;
78877;SDS011;68257;43.514;1.498;2024-01-15T12:15:36;24.27;;;15.60;;
78877;SDS011;68257;43.514;1.498;2024-01-15T12:18:02;27.20;;;17.20;;
78877;SDS011;68257;43.514;1.498;2024-01-15T12:20:28;21.38;;;14.43;;
78877;SDS011;68257;43.514;1.498;2024-01-15T12:22:57;22.97;;;14.23;;
78877;SDS011;68257;43.514;1.498;2024-01-15T12:25:23;21.65;;;14.15;;
78877;SDS011;68257;43.514;1.498;2024-01-15T12:27:49;25.75;;;14.93;;
78877;SDS011;68257;43.514;1.498;2024-01-15T12:30:16;22.87;;;14.03;;
78877;SDS011;68257;43.514;1.498;2024-01-15T12:32:41;22.55;;;14.27;;
78877;SDS011;68257;43.514;1.498;2024-01-15T12:35:07;22.27;;;14.47;;
78877;SDS011;68257;43.514;1.498;2024-01-15T12:37:34;21.52;;;14.30;;
78877;SDS011;68257;43.514;1.498;2024-01-15T12:40:00;23.80;;;15.47;;
78877;SDS011;68257;43.514;1.498;2024-01-15T12:42:25;23.15;;;14.98;;
78877;SDS011;68257;43.514;1.498;2024-01-15T12:44:54;25.20;;;16.33;;
78877;SDS011;68257;43.514;1.498;2024-01-15T12:47:21;26.45;;;16.30;;
78877;SDS011;68257;43.514;1.498;2024-01-15T12:49:46;25.57;;;16.80;;
78877;SDS011;68257;43.514;1.498;2024-01-15T12:52:15;26.90;;;16.48;;
78877;SDS011;68257;43.514;1.498;2024-01-15T12:54:40;25.25;;;16.67;;
78877;SDS011;68257;43.514;1.498;2024-01-15T12:57:06;25.25;;;15.98;;
78877;SDS011;68257;43.514;1.498;2024-01-15T12:59:31;24.20;;;16.10;;
78877;SDS011;68257;43.514;1.498;2024-01-15T13:01:56;24.33;;;16.40;;
78877;SDS011;68257;43.514;1.498;2024-01-15T13:04:23;25.37;;;16.53;;
78877;SDS011;68257;43.514;1.498;2024-01-15T13:06:52;26.77;;;17.42;;
78877;SDS011;68257;43.514;1.498;2024-01-15T13:09:18;25.48;;;16.73;;
78877;SDS011;68257;43.514;1.498;2024-01-15T13:11:44;25.73;;;17.57;;
78877;SDS011;68257;43.514;1.498;2024-01-15T13:14:12;25.75;;;17.02;;
78877;SDS011;68257;43.514;1.498;2024-01-15T13:16:41;13.90;;;8.88;;
78877;SDS011;68257;43.514;1.498;2024-01-15T13:19:09;12.02;;;8.65;;
78877;SDS011;68257;43.514;1.498;2024-01-15T13:21:38;12.32;;;7.25;;
78877;SDS011;68257;43.514;1.498;2024-01-15T13:24:05;12.65;;;7.13;;
78877;SDS011;68257;43.514;1.498;2024-01-15T13:26:34;10.18;;;6.30;;
78877;SDS011;68257;43.514;1.498;2024-01-15T13:29:01;12.13;;;6.43;;
78877;SDS011;68257;43.514;1.498;2024-01-15T13:31:30;10.88;;;6.85;;
78877;SDS011;68257;43.514;1.498;2024-01-15T13:33:56;10.65;;;7.40;;
78877;SDS011;68257;43.514;1.498;2024-01-15T13:36:22;10.00;;;6.40;;
78877;SDS011;68257;43.514;1.498;2024-01-15T13:38:48;8.25;;;5.55;;
78877;SDS011;68257;43.514;1.498;2024-01-15T13:41:18;7.88;;;5.32;;
78877;SDS011;68257;43.514;1.498;2024-01-15T13:43:45;7.13;;;5.13;;
78877;SDS011;68257;43.514;1.498;2024-01-15T13:46:12;8.73;;;5.00;;
78877;SDS011;68257;43.514;1.498;2024-01-15T13:48:38;9.80;;;7.57;;
78877;SDS011;68257;43.514;1.498;2024-01-15T13:51:03;16.57;;;11.57;;
78877;SDS011;68257;43.514;1.498;2024-01-15T13:53:28;13.40;;;9.90;;
78877;SDS011;68257;43.514;1.498;2024-01-15T13:55:54;11.20;;;7.30;;
78877;SDS011;68257;43.514;1.498;2024-01-15T13:58:20;10.07;;;6.47;;
78877;SDS011;68257;43.514;1.498;2024-01-15T14:00:46;12.43;;;8.50;;
78877;SDS011;68257;43.514;1.498;2024-01-15T14:03:12;8.80;;;5.90;;
78877;SDS011;68257;43.514;1.498;2024-01-15T14:05:37;8.63;;;4.90;;
78877;SDS011;68257;43.514;1.498;2024-01-15T14:08:03;8.85;;;5.22;;
78877;SDS011;68257;43.514;1.498;2024-01-15T14:10:29;10.48;;;5.47;;
78877;SDS011;68257;43.514;1.498;2024-01-15T14:12:54;10.27;;;6.40;;
78877;SDS011;68257;43.514;1.498;2024-01-15T14:15:20;9.77;;;5.80;;
78877;SDS011;68257;43.514;1.498;2024-01-15T14:17:46;9.93;;;5.40;;
78877;SDS011;68257;43.514;1.498;2024-01-15T14:20:11;8.90;;;5.43;;
78877;SDS011;68257;43.514;1.498;2024-01-15T14:22:37;11.50;;;8.20;;
78877;SDS011;68257;43.514;1.498;2024-01-15T14:25:03;7.22;;;4.57;;
78877;SDS011;68257;43.514;1.498;2024-01-15T14:27:29;9.05;;;5.30;;
78877;SDS011;68257;43.514;1.498;2024-01-15T14:29:54;8.03;;;5.33;;
78877;SDS011;68257;43.514;1.498;2024-01-15T14:32:20;6.60;;;4.87;;
78877;SDS011;68257;43.514;1.498;2024-01-15T14:34:45;8.23;;;5.27;;
78877;SDS011;68257;43.514;1.498;2024-01-15T14:37:11;7.57;;;5.03;;